sensor_id;sensor_type;location;lat;lon;timestamp;pressure;altitude;pressure_sealevel;temperature;humidity
59859;BME280;45734;53.648;9.566;2023-08-21T00:03:16;39874.84;;;-145.06;100.00
59859;BME280;45734;53.648;9.566;2023-08-21T00:08:16;39891.00;;;-145.06;100.00
59859;BME280;45734;53.648;9.566;2023-08-21T00:13:17;39901.06;;;-145.06;100.00
59859;BME280;45734;53.648;9.566;2023-08-21T00:18:19;39897.03;;;-145.06;100.00
59859;BME280;45734;53.648;9.566;2023-08-21T00:23:19;39878.88;;;-145.06;100.00
59859;BME280;45734;53.648;9.566;2023-08-21T00:28:19;39915.19;;;-145.06;100.00
59859;BME280;45734;53.648;9.566;2023-08-21T00:33:20;39927.31;;;-145.06;100.00
59859;BME280;45734;53.648;9.566;2023-08-21T00:38:21;39941.44;;;-145.06;100.00
59859;BME280;45734;53.648;9.566;2023-08-21T00:43:21;39858.69;;;-145.06;100.00
59859;BME280;45734;53.648;9.566;2023-08-21T00:48:21;39891.00;;;-145.06;100.00
59859;BME280;45734;53.648;9.566;2023-08-21T00:53:22;39903.09;;;-145.06;100.00
59859;BME280;45734;53.648;9.566;2023-08-21T00:58:22;39911.16;;;-145.06;100.00
59859;BME280;45734;53.648;9.566;2023-08-21T01:03:23;39935.38;;;-145.06;100.00
59859;BME280;45734;53.648;9.566;2023-08-21T01:08:36;39921.25;;;-145.06;100.00
59859;BME280;45734;53.648;9.566;2023-08-21T01:13:50;39935.38;;;-145.06;100.00
59859;BME280;45734;53.648;9.566;2023-08-21T01:18:54;39905.13;;;-145.06;100.00
59859;BME280;45734;53.648;9.566;2023-08-21T01:23:55;39967.66;;;-145.06;100.00
59859;BME280;45734;53.648;9.566;2023-08-21T01:28:55;39965.66;;;-145.06;100.00
59859;BME280;45734;53.648;9.566;2023-08-21T01:34:01;39923.28;;;-145.06;100.00
59859;BME280;45734;53.648;9.566;2023-08-21T01:39:04;39919.25;;;-145.06;100.00
59859;BME280;45734;53.648;9.566;2023-08-21T01:44:04;39941.44;;;-145.06;100.00
59859;BME280;45734;53.648;9.566;2023-08-21T01:49:05;39923.28;;;-145.06;100.00
59859;BME280;45734;53.648;9.566;2023-08-21T01:54:05;39937.41;;;-145.06;100.00
59859;BME280;45734;53.648;9.566;2023-08-21T01:59:05;39941.44;;;-145.06;100.00
59859;BME280;45734;53.648;9.566;2023-08-21T02:04:06;39927.31;;;-145.06;100.00
59859;BME280;45734;53.648;9.566;2023-08-21T02:09:07;39949.50;;;-145.06;100.00
59859;BME280;45734;53.648;9.566;2023-08-21T02:14:07;39931.34;;;-145.06;100.00
59859;BME280;45734;53.648;9.566;2023-08-21T02:19:07;39943.44;;;-145.06;100.00
59859;BME280;45734;53.648;9.566;2023-08-21T02:24:08;39903.09;;;-145.06;100.00
59859;BME280;45734;53.648;9.566;2023-08-21T02:29:08;39854.66;;;-145.06;100.00
59859;BME280;45734;53.648;9.566;2023-08-21T02:34:08;39812.28;;;-145.06;100.00
59859;BME280;45734;53.648;9.566;2023-08-21T02:39:09;39788.06;;;-145.06;100.00
59859;BME280;45734;53.648;9.566;2023-08-21T02:44:09;39804.22;;;-145.06;100.00
59859;BME280;45734;53.648;9.566;2023-08-21T02:49:09;39786.06;;;-145.06;100.00
59859;BME280;45734;53.648;9.566;2023-08-21T02:54:09;39790.09;;;-145.06;100.00
59859;BME280;45734;53.648;9.566;2023-08-21T02:59:10;39773.94;;;-145.06;100.00
59859;BME280;45734;53.648;9.566;2023-08-21T03:04:10;39806.22;;;-145.06;100.00
59859;BME280;45734;53.648;9.566;2023-08-21T03:09:11;39804.22;;;-145.06;100.00
59859;BME280;45734;53.648;9.566;2023-08-21T03:14:11;39775.97;;;-145.06;100.00
59859;BME280;45734;53.648;9.566;2023-08-21T03:19:11;39771.94;;;-145.06;100.00
59859;BME280;45734;53.648;9.566;2023-08-21T03:24:12;39769.91;;;-145.06;100.00
59859;BME280;45734;53.648;9.566;2023-08-21T03:29:12;39757.81;;;-145.06;100.00
59859;BME280;45734;53.648;9.566;2023-08-21T03:34:12;39782.00;;;-145.06;100.00
59859;BME280;45734;53.648;9.566;2023-08-21T03:39:12;39761.84;;;-145.06;100.00
59859;BME280;45734;53.648;9.566;2023-08-21T03:44:13;39759.81;;;-145.06;100.00
59859;BME280;45734;53.648;9.566;2023-08-21T03:49:13;39769.91;;;-145.06;100.00
59859;BME280;45734;53.648;9.566;2023-08-21T03:54:14;39719.47;;;-145.06;100.00
59859;BME280;45734;53.648;9.566;2023-08-21T03:59:14;39721.47;;;-145.06;100.00
59859;BME280;45734;53.648;9.566;2023-08-21T04:04:14;39727.53;;;-145.06;100.00
59859;BME280;45734;53.648;9.566;2023-08-21T04:09:15;39743.69;;;-145.06;100.00
59859;BME280;45734;53.648;9.566;2023-08-21T04:14:15;39743.69;;;-145.06;100.00
59859;BME280;45734;53.648;9.566;2023-08-21T04:19:15;39767.88;;;-145.06;100.00
59859;BME280;45734;53.648;9.566;2023-08-21T04:24:15;39707.34;;;-145.06;100.00
59859;BME280;45734;53.648;9.566;2023-08-21T04:29:16;39610.50;;;-145.06;100.00
59859;BME280;45734;53.648;9.566;2023-08-21T04:34:16;39554.00;;;-145.06;100.00
59859;BME280;45734;53.648;9.566;2023-08-21T04:39:18;39545.94;;;-145.06;100.00
59859;BME280;45734;53.648;9.566;2023-08-21T04:44:18;39465.22;;;-145.06;100.00
59859;BME280;45734;53.648;9.566;2023-08-21T04:49:19;39362.31;;;-145.06;100.00
59859;BME280;45734;53.648;9.566;2023-08-21T04:54:19;39217.03;;;-145.06;100.00
59859;BME280;45734;53.648;9.566;2023-08-21T04:59:19;39037.47;;;-145.06;100.00
59859;BME280;45734;53.648;9.566;2023-08-21T05:04:19;38932.56;;;-145.06;100.00
59859;BME280;45734;53.648;9.566;2023-08-21T05:09:20;38738.88;;;-145.06;100.00
59859;BME280;45734;53.648;9.566;2023-08-21T05:14:20;38563.38;;;-145.06;99.43
59859;BME280;45734;53.648;9.566;2023-08-21T05:19:21;38369.72;;;-145.06;91.55
59859;BME280;45734;53.648;9.566;2023-08-21T05:24:21;38095.38;;;-145.06;87.16
59859;BME280;45734;53.648;9.566;2023-08-21T05:29:22;37863.44;;;-145.06;81.06
59859;BME280;45734;53.648;9.566;2023-08-21T05:34:23;37683.94;;;-145.06;74.78
59859;BME280;45734;53.648;9.566;2023-08-21T05:39:25;37558.88;;;-145.06;70.50
59859;BME280;45734;53.648;9.566;2023-08-21T05:44:25;37405.63;;;-145.06;67.90
59859;BME280;45734;53.648;9.566;2023-08-21T05:49:26;37262.44;;;-145.06;65.99
59859;BME280;45734;53.648;9.566;2023-08-21T05:54:26;37115.22;;;-145.06;63.27
59859;BME280;45734;53.648;9.566;2023-08-21T05:59:29;36966.00;;;-145.06;61.68
59859;BME280;45734;53.648;9.566;2023-08-21T06:04:29;36776.44;;;-145.06;59.49
59859;BME280;45734;53.648;9.566;2023-08-21T06:09:30;36568.78;;;-145.06;58.80
59859;BME280;45734;53.648;9.566;2023-08-21T06:14:31;36336.91;;;-145.06;57.14
59859;BME280;45734;53.648;9.566;2023-08-21T06:19:32;36151.41;;;-145.06;54.24
59859;BME280;45734;53.648;9.566;2023-08-21T06:24:32;35982.06;;;-145.06;51.16
59859;BME280;45734;53.648;9.566;2023-08-21T06:29:32;36014.34;;;-145.06;49.71
59859;BME280;45734;53.648;9.566;2023-08-21T06:34:33;35919.59;;;-145.06;51.32
59859;BME280;45734;53.648;9.566;2023-08-21T06:39:34;35766.38;;;-145.06;49.19
59859;BME280;45734;53.648;9.566;2023-08-21T06:44:34;35724.03;;;-145.06;47.62
59859;BME280;45734;53.648;9.566;2023-08-21T06:49:34;35550.69;;;-145.06;47.61
59859;BME280;45734;53.648;9.566;2023-08-21T06:54:34;35397.47;;;-145.06;48.72
59859;BME280;45734;53.648;9.566;2023-08-21T06:59:35;35373.28;;;-145.06;46.89
59859;BME280;45734;53.648;9.566;2023-08-21T07:04:36;35264.44;;;-145.06;46.53
59859;BME280;45734;53.648;9.566;2023-08-21T07:09:36;35349.09;;;-145.06;46.81
59859;BME280;45734;53.648;9.566;2023-08-21T07:14:36;35379.34;;;-145.06;45.82
59859;BME280;45734;53.648;9.566;2023-08-21T07:19:37;35310.81;;;-145.06;45.57
59859;BME280;45734;53.648;9.566;2023-08-21T07:24:37;35316.84;;;-145.06;46.82
59859;BME280;45734;53.648;9.566;2023-08-21T07:29:38;35143.53;;;-145.06;45.43
59859;BME280;45734;53.648;9.566;2023-08-21T07:34:39;35226.16;;;-145.06;44.04
59859;BME280;45734;53.648;9.566;2023-08-21T07:39:39;35232.19;;;-145.06;44.20
59859;BME280;45734;53.648;9.566;2023-08-21T07:44:39;35187.84;;;-145.06;43.32
59859;BME280;45734;53.648;9.566;2023-08-21T07:49:40;35328.94;;;-145.06;44.04
59859;BME280;45734;53.648;9.566;2023-08-21T07:54:40;35399.50;;;-145.06;43.18
59859;BME280;45734;53.648;9.566;2023-08-21T07:59:41;35713.97;;;-145.06;43.51
59859;BME280;45734;53.648;9.566;2023-08-21T08:04:41;35645.41;;;-145.06;42.92
59859;BME280;45734;53.648;9.566;2023-08-21T08:09:43;35631.31;;;-145.06;43.65
59859;BME280;45734;53.648;9.566;2023-08-21T08:14:43;35669.63;;;-145.06;43.11
59859;BME280;45734;53.648;9.566;2023-08-21T08:19:44;35816.78;;;-145.06;43.45
59859;BME280;45734;53.648;9.566;2023-08-21T08:24:44;35804.66;;;-145.06;44.70
59859;BME280;45734;53.648;9.566;2023-08-21T08:29:44;35988.13;;;-145.06;42.21
59859;BME280;45734;53.648;9.566;2023-08-21T08:34:44;36101.03;;;-145.06;43.31
59859;BME280;45734;53.648;9.566;2023-08-21T08:39:47;35984.09;;;-145.06;44.15
59859;BME280;45734;53.648;9.566;2023-08-21T08:44:49;36056.66;;;-145.06;43.86
59859;BME280;45734;53.648;9.566;2023-08-21T08:49:50;35969.97;;;-145.06;43.41
59859;BME280;45734;53.648;9.566;2023-08-21T08:54:50;35911.50;;;-145.06;42.12
59859;BME280;45734;53.648;9.566;2023-08-21T08:59:51;36461.91;;;-145.06;42.95
59859;BME280;45734;53.648;9.566;2023-08-21T09:04:51;36490.13;;;-145.06;43.25
59859;BME280;45734;53.648;9.566;2023-08-21T09:09:51;36594.97;;;-145.06;45.62
59859;BME280;45734;53.648;9.566;2023-08-21T09:14:52;36532.47;;;-145.06;44.09
59859;BME280;45734;53.648;9.566;2023-08-21T09:19:53;36607.06;;;-145.06;44.11
59859;BME280;45734;53.648;9.566;2023-08-21T09:25:03;36522.41;;;-145.06;43.96
59859;BME280;45734;53.648;9.566;2023-08-21T09:30:10;36651.44;;;-145.06;42.78
59859;BME280;45734;53.648;9.566;2023-08-21T09:35:14;36653.44;;;-145.06;45.41
59859;BME280;45734;53.648;9.566;2023-08-21T09:40:15;36659.50;;;-145.06;45.14
59859;BME280;45734;53.648;9.566;2023-08-21T09:45:22;36730.06;;;-145.06;46.24
59859;BME280;45734;53.648;9.566;2023-08-21T09:50:23;36687.72;;;-145.06;49.63
59859;BME280;45734;53.648;9.566;2023-08-21T09:55:24;36824.84;;;-145.06;45.82
59859;BME280;45734;53.648;9.566;2023-08-21T10:00:36;36949.88;;;-145.06;48.03
59859;BME280;45734;53.648;9.566;2023-08-21T10:05:39;36982.13;;;-145.06;50.13
59859;BME280;45734;53.648;9.566;2023-08-21T10:10:39;37050.69;;;-145.06;49.46
59859;BME280;45734;53.648;9.566;2023-08-21T10:15:40;36966.00;;;-145.06;48.67
59859;BME280;45734;53.648;9.566;2023-08-21T10:20:42;37000.28;;;-145.06;51.04
59859;BME280;45734;53.648;9.566;2023-08-21T10:25:42;37163.63;;;-145.06;46.92
59859;BME280;45734;53.648;9.566;2023-08-21T10:30:42;37195.88;;;-145.06;52.83
59859;BME280;45734;53.648;9.566;2023-08-21T10:35:43;37127.31;;;-145.06;51.63
59859;BME280;45734;53.648;9.566;2023-08-21T10:41:06;37214.03;;;-145.06;53.12
59859;BME280;45734;53.648;9.566;2023-08-21T10:46:07;37252.34;;;-145.06;47.93
59859;BME280;45734;53.648;9.566;2023-08-21T10:51:09;37207.97;;;-145.06;51.84
59859;BME280;45734;53.648;9.566;2023-08-21T10:56:09;37205.97;;;-145.06;49.55
59859;BME280;45734;53.648;9.566;2023-08-21T11:01:09;37246.28;;;-145.06;47.18
59859;BME280;45734;53.648;9.566;2023-08-21T11:06:12;37258.41;;;-145.06;50.33
59859;BME280;45734;53.648;9.566;2023-08-21T11:11:13;37250.34;;;-145.06;45.84
59859;BME280;45734;53.648;9.566;2023-08-21T11:16:13;37401.59;;;-145.06;46.86
59859;BME280;45734;53.648;9.566;2023-08-21T11:21:13;37353.19;;;-145.06;51.06
59859;BME280;45734;53.648;9.566;2023-08-21T11:26:14;37472.16;;;-145.06;45.55
59859;BME280;45734;53.648;9.566;2023-08-21T11:31:15;37585.09;;;-145.06;46.60
59859;BME280;45734;53.648;9.566;2023-08-21T11:36:16;37772.66;;;-145.06;46.89
59859;BME280;45734;53.648;9.566;2023-08-21T11:41:16;37813.00;;;-145.06;48.46
59859;BME280;45734;53.648;9.566;2023-08-21T11:46:18;37891.66;;;-145.06;49.24
59859;BME280;45734;53.648;9.566;2023-08-21T11:51:18;37849.31;;;-145.06;49.03
59859;BME280;45734;53.648;9.566;2023-08-21T11:56:18;37752.50;;;-145.06;52.07
59859;BME280;45734;53.648;9.566;2023-08-21T12:01:19;37762.59;;;-145.06;47.43
59859;BME280;45734;53.648;9.566;2023-08-21T12:06:21;37845.28;;;-145.06;48.54
59859;BME280;45734;53.648;9.566;2023-08-21T12:11:22;37891.66;;;-145.06;46.33
59859;BME280;45734;53.648;9.566;2023-08-21T12:16:22;37875.53;;;-145.06;46.93
59859;BME280;45734;53.648;9.566;2023-08-21T12:21:23;37893.69;;;-145.06;46.53
59859;BME280;45734;53.648;9.566;2023-08-21T12:26:23;37982.44;;;-145.06;45.47
59859;BME280;45734;53.648;9.566;2023-08-21T12:31:23;37982.44;;;-145.06;47.02
59859;BME280;45734;53.648;9.566;2023-08-21T12:36:24;38002.59;;;-145.06;47.42
59859;BME280;45734;53.648;9.566;2023-08-21T12:41:24;37990.50;;;-145.06;48.10
59859;BME280;45734;53.648;9.566;2023-08-21T12:46:24;38073.19;;;-145.06;46.74
59859;BME280;45734;53.648;9.566;2023-08-21T12:51:27;38079.25;;;-145.06;47.78
59859;BME280;45734;53.648;9.566;2023-08-21T12:56:28;38091.34;;;-145.06;47.08
59859;BME280;45734;53.648;9.566;2023-08-21T13:01:28;38139.75;;;-145.06;47.23
59859;BME280;45734;53.648;9.566;2023-08-21T13:06:29;38202.28;;;-145.06;47.99
59859;BME280;45734;53.648;9.566;2023-08-21T13:11:30;38135.72;;;-145.06;48.31
59859;BME280;45734;53.648;9.566;2023-08-21T13:16:30;38107.50;;;-145.06;48.53
59859;BME280;45734;53.648;9.566;2023-08-21T13:21:30;38182.13;;;-145.06;50.23
59859;BME280;45734;53.648;9.566;2023-08-21T13:26:31;38105.47;;;-145.06;50.25
59859;BME280;45734;53.648;9.566;2023-08-21T13:31:31;38145.81;;;-145.06;48.04
59859;BME280;45734;53.648;9.566;2023-08-21T13:36:31;38176.06;;;-145.06;46.74
59859;BME280;45734;53.648;9.566;2023-08-21T13:41:32;38168.00;;;-145.06;49.86
59859;BME280;45734;53.648;9.566;2023-08-21T13:46:36;38139.75;;;-145.06;47.97
59859;BME280;45734;53.648;9.566;2023-08-21T13:51:36;38109.50;;;-145.06;47.62
59859;BME280;45734;53.648;9.566;2023-08-21T13:56:36;38147.84;;;-145.06;50.60
59859;BME280;45734;53.648;9.566;2023-08-21T14:01:36;38137.75;;;-145.06;48.92
59859;BME280;45734;53.648;9.566;2023-08-21T14:06:37;38168.00;;;-145.06;49.04
59859;BME280;45734;53.648;9.566;2023-08-21T14:11:37;38163.97;;;-145.06;48.07
59859;BME280;45734;53.648;9.566;2023-08-21T14:16:37;38157.91;;;-145.06;47.26
59859;BME280;45734;53.648;9.566;2023-08-21T14:21:38;38210.38;;;-145.06;47.41
59859;BME280;45734;53.648;9.566;2023-08-21T14:26:38;38200.28;;;-145.06;47.46
59859;BME280;45734;53.648;9.566;2023-08-21T14:31:40;38216.41;;;-145.06;47.53
59859;BME280;45734;53.648;9.566;2023-08-21T14:36:40;38188.19;;;-145.06;47.94
59859;BME280;45734;53.648;9.566;2023-08-21T14:41:43;38206.31;;;-145.06;45.22
59859;BME280;45734;53.648;9.566;2023-08-21T14:46:44;38297.09;;;-145.06;45.51
59859;BME280;45734;53.648;9.566;2023-08-21T14:51:44;38301.13;;;-145.06;46.43
59859;BME280;45734;53.648;9.566;2023-08-21T14:56:44;38315.25;;;-145.06;47.28
59859;BME280;45734;53.648;9.566;2023-08-21T15:01:45;38355.59;;;-145.06;46.93
59859;BME280;45734;53.648;9.566;2023-08-21T15:06:45;38412.09;;;-145.06;48.35
59859;BME280;45734;53.648;9.566;2023-08-21T15:11:45;38502.84;;;-145.06;47.99
59859;BME280;45734;53.648;9.566;2023-08-21T15:16:46;38510.94;;;-145.06;46.92
59859;BME280;45734;53.648;9.566;2023-08-21T15:21:46;38357.63;;;-145.06;46.86
59859;BME280;45734;53.648;9.566;2023-08-21T15:26:46;38393.94;;;-145.06;49.70
59859;BME280;45734;53.648;9.566;2023-08-21T15:31:48;38521.00;;;-145.06;48.60
59859;BME280;45734;53.648;9.566;2023-08-21T15:36:51;38393.94;;;-145.06;48.99
59859;BME280;45734;53.648;9.566;2023-08-21T15:41:51;38644.06;;;-145.06;48.68
59859;BME280;45734;53.648;9.566;2023-08-21T15:46:51;38617.84;;;-145.06;50.69
59859;BME280;45734;53.648;9.566;2023-08-21T15:51:52;38684.41;;;-145.06;50.08
59859;BME280;45734;53.648;9.566;2023-08-21T15:56:52;38728.78;;;-145.06;49.35
59859;BME280;45734;53.648;9.566;2023-08-21T16:01:52;38623.91;;;-145.06;50.88
59859;BME280;45734;53.648;9.566;2023-08-21T16:06:53;38664.25;;;-145.06;50.85
59859;BME280;45734;53.648;9.566;2023-08-21T16:11:53;38676.34;;;-145.06;52.51
59859;BME280;45734;53.648;9.566;2023-08-21T16:16:53;38744.94;;;-145.06;51.83
59859;BME280;45734;53.648;9.566;2023-08-21T16:21:56;38567.41;;;-145.06;52.66
59859;BME280;45734;53.648;9.566;2023-08-21T16:26:56;38589.59;;;-145.06;53.91
59859;BME280;45734;53.648;9.566;2023-08-21T16:31:57;38769.16;;;-145.06;53.34
59859;BME280;45734;53.648;9.566;2023-08-21T16:36:57;38660.22;;;-145.06;52.45
59859;BME280;45734;53.648;9.566;2023-08-21T16:41:58;38767.13;;;-145.06;53.28
59859;BME280;45734;53.648;9.566;2023-08-21T16:46:58;38722.75;;;-145.06;54.41
59859;BME280;45734;53.648;9.566;2023-08-21T16:51:58;38853.88;;;-145.06;53.06
59859;BME280;45734;53.648;9.566;2023-08-21T16:56:58;38817.56;;;-145.06;54.86
59859;BME280;45734;53.648;9.566;2023-08-21T17:01:59;38870.03;;;-145.06;56.45
59859;BME280;45734;53.648;9.566;2023-08-21T17:06:59;38918.44;;;-145.06;57.79
59859;BME280;45734;53.648;9.566;2023-08-21T17:11:59;38880.09;;;-145.06;59.38
59859;BME280;45734;53.648;9.566;2023-08-21T17:17:00;38878.09;;;-145.06;59.52
59859;BME280;45734;53.648;9.566;2023-08-21T17:22:00;38781.25;;;-145.06;60.15
59859;BME280;45734;53.648;9.566;2023-08-21T17:27:01;39025.38;;;-145.06;59.64
59859;BME280;45734;53.648;9.566;2023-08-21T17:32:10;38978.97;;;-145.06;61.71
59859;BME280;45734;53.648;9.566;2023-08-21T17:37:11;38829.66;;;-145.06;61.21
59859;BME280;45734;53.648;9.566;2023-08-21T17:42:11;39011.25;;;-145.06;62.04
59859;BME280;45734;53.648;9.566;2023-08-21T17:48:12;39083.88;;;-145.06;63.23
59859;BME280;45734;53.648;9.566;2023-08-21T17:53:15;38978.97;;;-145.06;64.07
59859;BME280;45734;53.648;9.566;2023-08-21T17:58:15;39069.75;;;-145.06;70.35
59859;BME280;45734;53.648;9.566;2023-08-21T18:03:16;39098.00;;;-145.06;73.20
59859;BME280;45734;53.648;9.566;2023-08-21T18:08:17;39142.38;;;-145.06;76.21
59859;BME280;45734;53.648;9.566;2023-08-21T18:13:17;39180.72;;;-145.06;77.39
59859;BME280;45734;53.648;9.566;2023-08-21T18:18:18;39043.53;;;-145.06;83.02
59859;BME280;45734;53.648;9.566;2023-08-21T18:23:24;39332.03;;;-145.06;83.97
59859;BME280;45734;53.648;9.566;2023-08-21T18:28:25;39192.81;;;-145.06;88.11
59859;BME280;45734;53.648;9.566;2023-08-21T18:33:26;39208.97;;;-145.06;91.29
59859;BME280;45734;53.648;9.566;2023-08-21T18:38:26;39346.16;;;-145.06;94.42
59859;BME280;45734;53.648;9.566;2023-08-21T18:43:27;39299.75;;;-145.06;94.09
59859;BME280;45734;53.648;9.566;2023-08-21T18:48:28;39578.22;;;-145.06;97.68
59859;BME280;45734;53.648;9.566;2023-08-21T18:53:28;39481.34;;;-145.06;98.58
59859;BME280;45734;53.648;9.566;2023-08-21T18:58:31;39547.94;;;-145.06;98.47
59859;BME280;45734;53.648;9.566;2023-08-21T19:03:31;39517.69;;;-145.06;100.00
59859;BME280;45734;53.648;9.566;2023-08-21T19:08:32;39545.94;;;-145.06;100.00
59859;BME280;45734;53.648;9.566;2023-08-21T19:13:32;39644.81;;;-145.06;100.00
59859;BME280;45734;53.648;9.566;2023-08-21T19:18:33;39604.44;;;-145.06;100.00
59859;BME280;45734;53.648;9.566;2023-08-21T19:23:34;39636.72;;;-145.06;100.00
59859;BME280;45734;53.648;9.566;2023-08-21T19:28:34;39664.97;;;-145.06;100.00
59859;BME280;45734;53.648;9.566;2023-08-21T19:33:35;39499.50;;;-145.06;100.00
59859;BME280;45734;53.648;9.566;2023-08-21T19:38:35;39685.16;;;-145.06;100.00
59859;BME280;45734;53.648;9.566;2023-08-21T19:43:36;39711.38;;;-145.06;100.00
59859;BME280;45734;53.648;9.566;2023-08-21T19:48:37;39551.97;;;-145.06;100.00
59859;BME280;45734;53.648;9.566;2023-08-21T19:53:37;39715.44;;;-145.06;100.00
59859;BME280;45734;53.648;9.566;2023-08-21T19:58:37;39769.91;;;-145.06;100.00
59859;BME280;45734;53.648;9.566;2023-08-21T20:03:38;39761.84;;;-145.06;100.00
59859;BME280;45734;53.648;9.566;2023-08-21T20:08:38;39767.88;;;-145.06;100.00
59859;BME280;45734;53.648;9.566;2023-08-21T20:13:39;39780.00;;;-145.06;100.00
59859;BME280;45734;53.648;9.566;2023-08-21T20:18:39;39580.22;;;-145.06;100.00
59859;BME280;45734;53.648;9.566;2023-08-21T20:23:40;39564.09;;;-145.06;100.00
59859;BME280;45734;53.648;9.566;2023-08-21T20:28:43;39866.78;;;-145.06;100.00
59859;BME280;45734;53.648;9.566;2023-08-21T20:33:43;39840.53;;;-145.06;100.00
59859;BME280;45734;53.648;9.566;2023-08-21T20:38:44;39711.38;;;-145.06;100.00
59859;BME280;45734;53.648;9.566;2023-08-21T20:43:44;39733.59;;;-145.06;100.00
59859;BME280;45734;53.648;9.566;2023-08-21T20:48:45;39828.44;;;-145.06;100.00
59859;BME280;45734;53.648;9.566;2023-08-21T20:53:45;39771.94;;;-145.06;100.00
59859;BME280;45734;53.648;9.566;2023-08-21T20:58:46;39899.06;;;-145.06;100.00
59859;BME280;45734;53.648;9.566;2023-08-21T21:03:46;39854.66;;;-145.06;100.00
59859;BME280;45734;53.648;9.566;2023-08-21T21:08:46;39927.31;;;-145.06;100.00
59859;BME280;45734;53.648;9.566;2023-08-21T21:13:47;39850.63;;;-145.06;100.00
59859;BME280;45734;53.648;9.566;2023-08-21T21:18:47;39911.16;;;-145.06;100.00
59859;BME280;45734;53.648;9.566;2023-08-21T21:23:47;39866.78;;;-145.06;100.00
59859;BME280;45734;53.648;9.566;2023-08-21T21:28:48;39923.28;;;-145.06;100.00
59859;BME280;45734;53.648;9.566;2023-08-21T21:33:48;39911.16;;;-145.06;100.00
59859;BME280;45734;53.648;9.566;2023-08-21T21:38:52;39905.13;;;-145.06;100.00
59859;BME280;45734;53.648;9.566;2023-08-21T21:43:53;39761.84;;;-145.06;100.00
59859;BME280;45734;53.648;9.566;2023-08-21T21:48:53;39949.50;;;-145.06;100.00
59859;BME280;45734;53.648;9.566;2023-08-21T21:53:54;39899.06;;;-145.06;100.00
59859;BME280;45734;53.648;9.566;2023-08-21T21:58:54;39739.63;;;-145.06;100.00
59859;BME280;45734;53.648;9.566;2023-08-21T22:03:54;39933.38;;;-145.06;100.00
59859;BME280;45734;53.648;9.566;2023-08-21T22:08:55;40004.00;;;-145.06;100.00
59859;BME280;45734;53.648;9.566;2023-08-21T22:13:55;39947.50;;;-145.06;100.00
59859;BME280;45734;53.648;9.566;2023-08-21T22:18:56;39943.44;;;-145.06;100.00
59859;BME280;45734;53.648;9.566;2023-08-21T22:23:56;39915.19;;;-145.06;100.00
59859;BME280;45734;53.648;9.566;2023-08-21T22:28:56;39777.97;;;-145.06;100.00
59859;BME280;45734;53.648;9.566;2023-08-21T22:33:57;39852.66;;;-145.06;100.00
59859;BME280;45734;53.648;9.566;2023-08-21T22:38:57;39943.44;;;-145.06;100.00
59859;BME280;45734;53.648;9.566;2023-08-21T22:43:57;39947.50;;;-145.06;100.00
59859;BME280;45734;53.648;9.566;2023-08-21T22:48:58;39993.91;;;-145.06;100.00
59859;BME280;45734;53.648;9.566;2023-08-21T22:53:58;39854.66;;;-145.06;100.00
59859;BME280;45734;53.648;9.566;2023-08-21T22:58:59;40016.09;;;-145.06;100.00
59859;BME280;45734;53.648;9.566;2023-08-21T23:03:59;39967.66;;;-145.06;100.00
59859;BME280;45734;53.648;9.566;2023-08-21T23:08:59;39856.69;;;-145.06;100.00
59859;BME280;45734;53.648;9.566;2023-08-21T23:14:00;39985.84;;;-145.06;100.00
59859;BME280;45734;53.648;9.566;2023-08-21T23:19:00;39951.53;;;-145.06;100.00
59859;BME280;45734;53.648;9.566;2023-08-21T23:24:00;39830.44;;;-145.06;100.00
59859;BME280;45734;53.648;9.566;2023-08-21T23:29:01;39975.75;;;-145.06;100.00
59859;BME280;45734;53.648;9.566;2023-08-21T23:34:03;39983.81;;;-145.06;100.00
59859;BME280;45734;53.648;9.566;2023-08-21T23:39:04;39919.25;;;-145.06;100.00
59859;BME280;45734;53.648;9.566;2023-08-21T23:44:07;39981.78;;;-145.06;100.00
59859;BME280;45734;53.648;9.566;2023-08-21T23:49:09;40018.13;;;-145.06;100.00
59859;BME280;45734;53.648;9.566;2023-08-21T23:54:10;40054.44;;;-145.06;100.00
59859;BME280;45734;53.648;9.566;2023-08-21T23:59:10;40016.09;;;-145.06;100.00
